Ana Sayfa
METAR-TAF:

METAR-TAF

Havaalanları :

Moree, Avustralya

Enlem: 29-29-56S, Boylam: 149-50-41E, yükseklik: 214 m

Güncel hava durumu gözlemi

Rapor saat 11:00 UTC de 18 dakika önce yapıldı.
Rüzgar kuzeydan 5 kt
Sıcaklık 33°C
Nem 39%
Basınç 1011 hPa
Görüş mesafesi 10 km veya daha fazla

METAR: YMOR 291100Z AUTO 01005KT 9999 // NCD 33/17 Q1011

Saat: 22:18 (11:18 UTC)


TAF: eksik

4.000'den fazla havaalanı için hava durumu gözlemleri ve tahminleri (METAR ve TAF raporları).

Kullanılabilir istasyonlar harita üzerinde sarı ve kırmızı noktalarla gösterilir.

İstasyonun adını görmek için fareyi noktanın üzerinde gezdirin.

Sonrasında hava gözlem ve tahminlerini görmek için tıklayın.

Haritayı değiştirmek için: yaklaştırmak için siyah artı işaretli yeşil düğmeye ve uzaklaştırmak için de eksi işaretli düğmeye hızla tıklayın; bitişik haritalar için yeşil okları kullanın.


METAR-TAF: